Time;durP1;ratioP1;P1;durP2;ratioP2;P2;SDS_P1;SDS_P2;PMS_P1;PMS_P2;Temp;Humidity;BMP_temperature;BMP_pressure;BME280_temperature;BME280_humidity;BME280_pressure;Samples;Min_cycle;Max_cycle;Signal;HPM_P1;HPM_P2
2020/12/08 00:00:45;;;;;;;20.85;11.3;;;;;;;0.92;87.71387;93692.36;;;;
2020/12/08 00:01:45;;;;;;;20.85;11.3;;;;;;;0.92;87.71387;93692.36;;;;
2020/12/08 00:02:46;;;;;;;20.85;11.3;;;;;;;0.92;87.71387;93692.36;;;;
2020/12/08 00:03:47;;;;;;;20.85;11.3;;;;;;;0.92;87.71387;93692.36;;;;
2020/12/08 00:04:48;;;;;;;18.95;10.85;;;;;;;0.79;87.7207;93677.72;;;;
2020/12/08 00:05:48;;;;;;;18.95;10.85;;;;;;;0.79;87.7207;93677.72;;;;
2020/12/08 00:06:49;;;;;;;18.95;10.85;;;;;;;0.79;87.7207;93677.72;;;;
2020/12/08 00:07:49;;;;;;;18.95;10.85;;;;;;;0.79;87.7207;93677.72;;;;
2020/12/08 00:08:50;;;;;;;18.95;10.85;;;;;;;0.79;87.7207;93677.72;;;;
2020/12/08 00:09:51;;;;;;;18.95;10.85;;;;;;;0.79;87.7207;93677.72;;;;
2020/12/08 00:10:51;;;;;;;18.95;10.85;;;;;;;0.79;87.7207;93677.72;;;;
2020/12/08 00:11:51;;;;;;;18.95;10.85;;;;;;;0.79;87.7207;93677.72;;;;
2020/12/08 00:12:52;;;;;;;18.95;10.85;;;;;;;0.79;87.7207;93677.72;;;;
2020/12/08 00:13:53;;;;;;;18.95;10.85;;;;;;;0.79;87.7207;93677.72;;;;
2020/12/08 00:14:54;;;;;;;18.95;10.85;;;;;;;0.79;87.7207;93677.72;;;;
2020/12/08 00:15:55;;;;;;;25.65;10.7;;;;;;;0.67;88.33008;93679.46;;;;
2020/12/08 00:16:55;;;;;;;25.65;10.7;;;;;;;0.67;88.33008;93679.46;;;;
2020/12/08 00:17:56;;;;;;;25.65;10.7;;;;;;;0.67;88.33008;93679.46;;;;
2020/12/08 00:18:56;;;;;;;25.65;10.7;;;;;;;0.67;88.33008;93679.46;;;;
2020/12/08 00:19:57;;;;;;;25.65;10.7;;;;;;;0.67;88.33008;93679.46;;;;
2020/12/08 00:20:57;;;;;;;25.65;10.7;;;;;;;0.67;88.33008;93679.46;;;;
2020/12/08 00:21:58;;;;;;;25.65;10.7;;;;;;;0.67;88.33008;93679.46;;;;
2020/12/08 00:22:58;;;;;;;25.65;10.7;;;;;;;0.67;88.33008;93679.46;;;;
2020/12/08 00:23:59;;;;;;;25.65;10.7;;;;;;;0.67;88.33008;93679.46;;;;
2020/12/08 00:24:59;;;;;;;25.65;10.7;;;;;;;0.67;88.33008;93679.46;;;;
2020/12/08 00:26:00;;;;;;;19.9;11.55;;;;;;;0.59;88.45898;93685.96;;;;
2020/12/08 00:27:00;;;;;;;19.9;11.55;;;;;;;0.59;88.45898;93685.96;;;;
2020/12/08 00:28:01;;;;;;;19.9;11.55;;;;;;;0.59;88.45898;93685.96;;;;
2020/12/08 00:29:01;;;;;;;19.9;11.55;;;;;;;0.59;88.45898;93685.96;;;;
2020/12/08 00:30:02;;;;;;;19.9;11.55;;;;;;;0.59;88.45898;93685.96;;;;
2020/12/08 00:31:07;;;;;;;19.9;11.55;;;;;;;0.59;88.45898;93685.96;;;;
2020/12/08 00:32:08;;;;;;;19.9;11.55;;;;;;;0.59;88.45898;93685.96;;;;
2020/12/08 00:33:09;;;;;;;19.9;11.55;;;;;;;0.59;88.45898;93685.96;;;;
2020/12/08 00:34:10;;;;;;;19.9;11.55;;;;;;;0.59;88.45898;93685.96;;;;
2020/12/08 00:35:10;;;;;;;19.9;11.55;;;;;;;0.59;88.45898;93685.96;;;;
2020/12/08 00:36:13;;;;;;;19.9;11.55;;;;;;;0.59;88.45898;93685.96;;;;
2020/12/08 00:37:14;;;;;;;19.4;10.7;;;;;;;0.61;88.30762;93693.58;;;;
2020/12/08 00:38:14;;;;;;;19.4;10.7;;;;;;;0.61;88.30762;93693.58;;;;
2020/12/08 00:39:15;;;;;;;19.4;10.7;;;;;;;0.61;88.30762;93693.58;;;;
2020/12/08 00:40:15;;;;;;;19.4;10.7;;;;;;;0.61;88.30762;93693.58;;;;
2020/12/08 00:41:16;;;;;;;19.4;10.7;;;;;;;0.61;88.30762;93693.58;;;;
2020/12/08 00:42:17;;;;;;;19.4;10.7;;;;;;;0.61;88.30762;93693.58;;;;
2020/12/08 00:43:18;;;;;;;19.4;10.7;;;;;;;0.61;88.30762;93693.58;;;;
2020/12/08 00:44:18;;;;;;;19.4;10.7;;;;;;;0.61;88.30762;93693.58;;;;
2020/12/08 00:45:19;;;;;;;19.4;10.7;;;;;;;0.61;88.30762;93693.58;;;;
2020/12/08 00:46:19;;;;;;;19.4;10.7;;;;;;;0.61;88.30762;93693.58;;;;
2020/12/08 00:47:20;;;;;;;18.85;10.45;;;;;;;0.59;87.96875;93694.43;;;;
2020/12/08 00:48:21;;;;;;;18.85;10.45;;;;;;;0.59;87.96875;93694.43;;;;
2020/12/08 00:49:21;;;;;;;18.85;10.45;;;;;;;0.59;87.96875;93694.43;;;;
2020/12/08 00:50:22;;;;;;;18.85;10.45;;;;;;;0.59;87.96875;93694.43;;;;
2020/12/08 00:51:22;;;;;;;18.85;10.45;;;;;;;0.59;87.96875;93694.43;;;;
2020/12/08 00:52:23;;;;;;;18.85;10.45;;;;;;;0.59;87.96875;93694.43;;;;
2020/12/08 00:53:23;;;;;;;18.85;10.45;;;;;;;0.59;87.96875;93694.43;;;;
2020/12/08 00:54:24;;;;;;;18.85;10.45;;;;;;;0.59;87.96875;93694.43;;;;
2020/12/08 00:55:24;;;;;;;18.85;10.45;;;;;;;0.59;87.96875;93694.43;;;;
2020/12/08 00:56:25;;;;;;;18.85;10.45;;;;;;;0.59;87.96875;93694.43;;;;
2020/12/08 00:57:25;;;;;;;18.85;10.45;;;;;;;0.59;87.96875;93694.43;;;;
2020/12/08 00:58:26;;;;;;;19.7;10.65;;;;;;;0.53;87.82227;93697.42;;;;
2020/12/08 00:59:27;;;;;;;19.7;10.65;;;;;;;0.53;87.82227;93697.42;;;;
2020/12/08 01:00:27;;;;;;;19.7;10.65;;;;;;;0.53;87.82227;93697.42;;;;
2020/12/08 01:01:28;;;;;;;19.7;10.65;;;;;;;0.53;87.82227;93697.42;;;;
2020/12/08 01:02:29;;;;;;;19.7;10.65;;;;;;;0.53;87.82227;93697.42;;;;
2020/12/08 01:03:29;;;;;;;19.7;10.65;;;;;;;0.53;87.82227;93697.42;;;;
2020/12/08 01:04:31;;;;;;;19.7;10.65;;;;;;;0.53;87.82227;93697.42;;;;
2020/12/08 01:05:31;;;;;;;19.7;10.65;;;;;;;0.53;87.82227;93697.42;;;;
2020/12/08 01:06:31;;;;;;;19.7;10.65;;;;;;;0.53;87.82227;93697.42;;;;
2020/12/08 01:07:32;;;;;;;19.7;10.65;;;;;;;0.53;87.82227;93697.42;;;;
2020/12/08 01:08:32;;;;;;;22;11.75;;;;;;;0.49;87.83496;93702.44;;;;
2020/12/08 01:09:33;;;;;;;22;11.75;;;;;;;0.49;87.83496;93702.44;;;;
2020/12/08 01:10:34;;;;;;;22;11.75;;;;;;;0.49;87.83496;93702.44;;;;
2020/12/08 01:11:35;;;;;;;22;11.75;;;;;;;0.49;87.83496;93702.44;;;;
2020/12/08 01:12:40;;;;;;;22;11.75;;;;;;;0.49;87.83496;93702.44;;;;
2020/12/08 01:13:41;;;;;;;22;11.75;;;;;;;0.49;87.83496;93702.44;;;;
2020/12/08 01:14:41;;;;;;;22;11.75;;;;;;;0.49;87.83496;93702.44;;;;
2020/12/08 01:15:42;;;;;;;22;11.75;;;;;;;0.49;87.83496;93702.44;;;;
2020/12/08 01:16:42;;;;;;;22;11.75;;;;;;;0.49;87.83496;93702.44;;;;
2020/12/08 01:17:43;;;;;;;22;11.75;;;;;;;0.49;87.83496;93702.44;;;;
2020/12/08 01:18:43;;;;;;;22;11.75;;;;;;;0.49;87.83496;93702.44;;;;
2020/12/08 01:19:44;;;;;;;19.45;10.8;;;;;;;0.39;87.76172;93697.63;;;;
2020/12/08 01:20:44;;;;;;;19.45;10.8;;;;;;;0.39;87.76172;93697.63;;;;
2020/12/08 01:21:45;;;;;;;19.45;10.8;;;;;;;0.39;87.76172;93697.63;;;;
2020/12/08 01:22:51;;;;;;;19.45;10.8;;;;;;;0.39;87.76172;93697.63;;;;
2020/12/08 01:23:51;;;;;;;19.45;10.8;;;;;;;0.39;87.76172;93697.63;;;;
2020/12/08 01:24:52;;;;;;;19.45;10.8;;;;;;;0.39;87.76172;93697.63;;;;
2020/12/08 01:25:52;;;;;;;19.45;10.8;;;;;;;0.39;87.76172;93697.63;;;;
2020/12/08 01:26:53;;;;;;;19.45;10.8;;;;;;;0.39;87.76172;93697.63;;;;
2020/12/08 01:27:56;;;;;;;19.45;10.8;;;;;;;0.39;87.76172;93697.63;;;;
2020/12/08 01:28:56;;;;;;;19.45;10.8;;;;;;;0.39;87.76172;93697.63;;;;
2020/12/08 01:29:57;;;;;;;19;10.95;;;;;;;0.24;88.26172;93705.55;;;;
2020/12/08 01:30:57;;;;;;;19;10.95;;;;;;;0.24;88.26172;93705.55;;;;
2020/12/08 01:31:58;;;;;;;19;10.95;;;;;;;0.24;88.26172;93705.55;;;;
2020/12/08 01:32:58;;;;;;;19;10.95;;;;;;;0.24;88.26172;93705.55;;;;
2020/12/08 01:33:59;;;;;;;19;10.95;;;;;;;0.24;88.26172;93705.55;;;;
2020/12/08 01:35:00;;;;;;;19;10.95;;;;;;;0.24;88.26172;93705.55;;;;
2020/12/08 01:36:00;;;;;;;19;10.95;;;;;;;0.24;88.26172;93705.55;;;;
2020/12/08 01:37:01;;;;;;;19;10.95;;;;;;;0.24;88.26172;93705.55;;;;
2020/12/08 01:38:03;;;;;;;19;10.95;;;;;;;0.24;88.26172;93705.55;;;;
2020/12/08 01:39:03;;;;;;;19;10.95;;;;;;;0.24;88.26172;93705.55;;;;
2020/12/08 01:40:04;;;;;;;19;10.95;;;;;;;0.24;88.26172;93705.55;;;;
2020/12/08 01:41:05;;;;;;;16.75;9.9;;;;;;;0.09;88.54199;93700.92;;;;
2020/12/08 01:42:06;;;;;;;16.75;9.9;;;;;;;0.09;88.54199;93700.92;;;;
2020/12/08 01:43:07;;;;;;;16.75;9.9;;;;;;;0.09;88.54199;93700.92;;;;
2020/12/08 01:44:07;;;;;;;16.75;9.9;;;;;;;0.09;88.54199;93700.92;;;;
2020/12/08 01:45:08;;;;;;;16.75;9.9;;;;;;;0.09;88.54199;93700.92;;;;
2020/12/08 01:46:08;;;;;;;16.75;9.9;;;;;;;0.09;88.54199;93700.92;;;;
2020/12/08 01:47:10;;;;;;;16.75;9.9;;;;;;;0.09;88.54199;93700.92;;;;
2020/12/08 01:48:11;;;;;;;16.75;9.9;;;;;;;0.09;88.54199;93700.92;;;;
2020/12/08 01:49:12;;;;;;;16.75;9.9;;;;;;;0.09;88.54199;93700.92;;;;
2020/12/08 01:50:13;;;;;;;16.75;9.9;;;;;;;0.09;88.54199;93700.92;;;;
2020/12/08 01:51:14;;;;;;;19.45;10.6;;;;;;;0.03;88.75684;93709.84;;;;
2020/12/08 01:52:16;;;;;;;19.45;10.6;;;;;;;0.03;88.75684;93709.84;;;;
2020/12/08 01:53:17;;;;;;;19.45;10.6;;;;;;;0.03;88.75684;93709.84;;;;
2020/12/08 01:54:17;;;;;;;19.45;10.6;;;;;;;0.03;88.75684;93709.84;;;;
2020/12/08 01:55:18;;;;;;;19.45;10.6;;;;;;;0.03;88.75684;93709.84;;;;
2020/12/08 01:56:19;;;;;;;19.45;10.6;;;;;;;0.03;88.75684;93709.84;;;;
2020/12/08 01:57:20;;;;;;;19.45;10.6;;;;;;;0.03;88.75684;93709.84;;;;
2020/12/08 01:58:21;;;;;;;19.45;10.6;;;;;;;0.03;88.75684;93709.84;;;;
2020/12/08 01:59:21;;;;;;;19.45;10.6;;;;;;;0.03;88.75684;93709.84;;;;
2020/12/08 02:00:22;;;;;;;19.45;10.6;;;;;;;0.03;88.75684;93709.84;;;;
2020/12/08 02:01:22;;;;;;;19.45;10.6;;;;;;;0.03;88.75684;93709.84;;;;
2020/12/08 02:02:23;;;;;;;19.9;10.8;;;;;;;-0.09;88.82715;93711.02;;;;
2020/12/08 02:03:26;;;;;;;19.9;10.8;;;;;;;-0.09;88.82715;93711.02;;;;
2020/12/08 02:04:27;;;;;;;19.9;10.8;;;;;;;-0.09;88.82715;93711.02;;;;
2020/12/08 02:05:28;;;;;;;19.9;10.8;;;;;;;-0.09;88.82715;93711.02;;;;
2020/12/08 02:06:28;;;;;;;19.9;10.8;;;;;;;-0.09;88.82715;93711.02;;;;
2020/12/08 02:07:29;;;;;;;19.9;10.8;;;;;;;-0.09;88.82715;93711.02;;;;
2020/12/08 02:08:29;;;;;;;19.9;10.8;;;;;;;-0.09;88.82715;93711.02;;;;
2020/12/08 02:09:32;;;;;;;19.9;10.8;;;;;;;-0.09;88.82715;93711.02;;;;
2020/12/08 02:10:35;;;;;;;19.9;10.8;;;;;;;-0.09;88.82715;93711.02;;;;
2020/12/08 02:11:36;;;;;;;19.9;10.8;;;;;;;-0.09;88.82715;93711.02;;;;
2020/12/08 02:12:36;;;;;;;29.9;10.95;;;;;;;-0.21;89.07227;93697.68;;;;
2020/12/08 02:13:37;;;;;;;29.9;10.95;;;;;;;-0.21;89.07227;93697.68;;;;
2020/12/08 02:14:37;;;;;;;29.9;10.95;;;;;;;-0.21;89.07227;93697.68;;;;
2020/12/08 02:15:38;;;;;;;29.9;10.95;;;;;;;-0.21;89.07227;93697.68;;;;
2020/12/08 02:16:38;;;;;;;29.9;10.95;;;;;;;-0.21;89.07227;93697.68;;;;
2020/12/08 02:17:39;;;;;;;29.9;10.95;;;;;;;-0.21;89.07227;93697.68;;;;
2020/12/08 02:18:39;;;;;;;29.9;10.95;;;;;;;-0.21;89.07227;93697.68;;;;
2020/12/08 02:19:40;;;;;;;29.9;10.95;;;;;;;-0.21;89.07227;93697.68;;;;
2020/12/08 02:20:43;;;;;;;29.9;10.95;;;;;;;-0.21;89.07227;93697.68;;;;
2020/12/08 02:21:44;;;;;;;29.9;10.95;;;;;;;-0.21;89.07227;93697.68;;;;
2020/12/08 02:22:44;;;;;;;29.9;10.95;;;;;;;-0.21;89.07227;93697.68;;;;
2020/12/08 02:23:45;;;;;;;18.8;10.1;;;;;;;-0.33;89.06055;93699.27;;;;
2020/12/08 02:24:49;;;;;;;18.8;10.1;;;;;;;-0.33;89.06055;93699.27;;;;
2020/12/08 02:25:50;;;;;;;18.8;10.1;;;;;;;-0.33;89.06055;93699.27;;;;
2020/12/08 02:26:59;;;;;;;18.8;10.1;;;;;;;-0.33;89.06055;93699.27;;;;
2020/12/08 02:28:00;;;;;;;18.8;10.1;;;;;;;-0.33;89.06055;93699.27;;;;
2020/12/08 02:29:01;;;;;;;18.8;10.1;;;;;;;-0.33;89.06055;93699.27;;;;
2020/12/08 02:30:01;;;;;;;18.8;10.1;;;;;;;-0.33;89.06055;93699.27;;;;
2020/12/08 02:31:03;;;;;;;18.8;10.1;;;;;;;-0.33;89.06055;93699.27;;;;
2020/12/08 02:32:03;;;;;;;18.8;10.1;;;;;;;-0.33;89.06055;93699.27;;;;
2020/12/08 02:33:04;;;;;;;18.8;10.1;;;;;;;-0.33;89.06055;93699.27;;;;
2020/12/08 02:34:06;;;;;;;20.15;9.299999;;;;;;;-0.4;89.19824;93687.97;;;;
2020/12/08 02:35:07;;;;;;;20.15;9.299999;;;;;;;-0.4;89.19824;93687.97;;;;
2020/12/08 02:36:08;;;;;;;20.15;9.299999;;;;;;;-0.4;89.19824;93687.97;;;;
2020/12/08 02:37:09;;;;;;;20.15;9.299999;;;;;;;-0.4;89.19824;93687.97;;;;
2020/12/08 02:38:09;;;;;;;20.15;9.299999;;;;;;;-0.4;89.19824;93687.97;;;;
2020/12/08 02:39:10;;;;;;;20.15;9.299999;;;;;;;-0.4;89.19824;93687.97;;;;
2020/12/08 02:40:10;;;;;;;20.15;9.299999;;;;;;;-0.4;89.19824;93687.97;;;;
2020/12/08 02:41:11;;;;;;;20.15;9.299999;;;;;;;-0.4;89.19824;93687.97;;;;
2020/12/08 02:42:11;;;;;;;20.15;9.299999;;;;;;;-0.4;89.19824;93687.97;;;;
2020/12/08 02:43:12;;;;;;;20.15;9.299999;;;;;;;-0.4;89.19824;93687.97;;;;
2020/12/08 02:44:13;;;;;;;20.15;9.299999;;;;;;;-0.4;89.19824;93687.97;;;;
2020/12/08 02:45:14;;;;;;;15.75;9.200001;;;;;;;-0.54;88.95117;93679.25;;;;
2020/12/08 02:46:14;;;;;;;15.75;9.200001;;;;;;;-0.54;88.95117;93679.25;;;;
2020/12/08 02:47:15;;;;;;;15.75;9.200001;;;;;;;-0.54;88.95117;93679.25;;;;
2020/12/08 02:48:15;;;;;;;15.75;9.200001;;;;;;;-0.54;88.95117;93679.25;;;;
2020/12/08 02:49:17;;;;;;;15.75;9.200001;;;;;;;-0.54;88.95117;93679.25;;;;
2020/12/08 02:50:18;;;;;;;15.75;9.200001;;;;;;;-0.54;88.95117;93679.25;;;;
2020/12/08 02:51:18;;;;;;;15.75;9.200001;;;;;;;-0.54;88.95117;93679.25;;;;
2020/12/08 02:52:19;;;;;;;15.75;9.200001;;;;;;;-0.54;88.95117;93679.25;;;;
2020/12/08 02:53:19;;;;;;;15.75;9.200001;;;;;;;-0.54;88.95117;93679.25;;;;
2020/12/08 02:54:20;;;;;;;15.75;9.200001;;;;;;;-0.54;88.95117;93679.25;;;;
2020/12/08 02:55:20;;;;;;;31.3;10.45;;;;;;;-0.68;89.04785;93662.55;;;;
2020/12/08 02:56:21;;;;;;;31.3;10.45;;;;;;;-0.68;89.04785;93662.55;;;;
2020/12/08 02:57:23;;;;;;;31.3;10.45;;;;;;;-0.68;89.04785;93662.55;;;;
2020/12/08 02:58:24;;;;;;;31.3;10.45;;;;;;;-0.68;89.04785;93662.55;;;;
2020/12/08 02:59:25;;;;;;;31.3;10.45;;;;;;;-0.68;89.04785;93662.55;;;;
2020/12/08 03:00:25;;;;;;;31.3;10.45;;;;;;;-0.68;89.04785;93662.55;;;;
2020/12/08 03:01:26;;;;;;;31.3;10.45;;;;;;;-0.68;89.04785;93662.55;;;;
2020/12/08 03:02:26;;;;;;;31.3;10.45;;;;;;;-0.68;89.04785;93662.55;;;;
2020/12/08 03:03:27;;;;;;;31.3;10.45;;;;;;;-0.68;89.04785;93662.55;;;;
2020/12/08 03:04:27;;;;;;;31.3;10.45;;;;;;;-0.68;89.04785;93662.55;;;;
2020/12/08 03:05:28;;;;;;;31.3;10.45;;;;;;;-0.68;89.04785;93662.55;;;;
2020/12/08 03:06:28;;;;;;;25.3;10.6;;;;;;;-0.69;89.05664;93653.91;;;;
2020/12/08 03:07:29;;;;;;;25.3;10.6;;;;;;;-0.69;89.05664;93653.91;;;;
2020/12/08 03:08:29;;;;;;;25.3;10.6;;;;;;;-0.69;89.05664;93653.91;;;;
2020/12/08 03:09:30;;;;;;;25.3;10.6;;;;;;;-0.69;89.05664;93653.91;;;;
2020/12/08 03:10:30;;;;;;;25.3;10.6;;;;;;;-0.69;89.05664;93653.91;;;;
2020/12/08 03:11:31;;;;;;;25.3;10.6;;;;;;;-0.69;89.05664;93653.91;;;;
2020/12/08 03:12:32;;;;;;;25.3;10.6;;;;;;;-0.69;89.05664;93653.91;;;;
2020/12/08 03:13:33;;;;;;;25.3;10.6;;;;;;;-0.69;89.05664;93653.91;;;;
2020/12/08 03:14:33;;;;;;;25.3;10.6;;;;;;;-0.69;89.05664;93653.91;;;;
2020/12/08 03:15:34;;;;;;;25.3;10.6;;;;;;;-0.69;89.05664;93653.91;;;;
2020/12/08 03:16:34;;;;;;;25.3;10.6;;;;;;;-0.69;89.05664;93653.91;;;;
2020/12/08 03:17:35;;;;;;;22.85;9.35;;;;;;;-0.72;88.75;93665.31;;;;
2020/12/08 03:18:35;;;;;;;22.85;9.35;;;;;;;-0.72;88.75;93665.31;;;;
2020/12/08 03:19:36;;;;;;;22.85;9.35;;;;;;;-0.72;88.75;93665.31;;;;
2020/12/08 03:20:36;;;;;;;22.85;9.35;;;;;;;-0.72;88.75;93665.31;;;;
2020/12/08 03:21:38;;;;;;;22.85;9.35;;;;;;;-0.72;88.75;93665.31;;;;
2020/12/08 03:22:39;;;;;;;22.85;9.35;;;;;;;-0.72;88.75;93665.31;;;;
2020/12/08 03:23:40;;;;;;;22.85;9.35;;;;;;;-0.72;88.75;93665.31;;;;
2020/12/08 03:24:41;;;;;;;22.85;9.35;;;;;;;-0.72;88.75;93665.31;;;;
2020/12/08 03:25:41;;;;;;;22.85;9.35;;;;;;;-0.72;88.75;93665.31;;;;
2020/12/08 03:26:42;;;;;;;22.85;9.35;;;;;;;-0.72;88.75;93665.31;;;;
2020/12/08 03:27:42;;;;;;;58.5;11.9;;;;;;;-0.75;88.66992;93666.64;;;;
2020/12/08 03:28:43;;;;;;;58.5;11.9;;;;;;;-0.75;88.66992;93666.64;;;;
2020/12/08 03:29:43;;;;;;;58.5;11.9;;;;;;;-0.75;88.66992;93666.64;;;;
2020/12/08 03:30:44;;;;;;;58.5;11.9;;;;;;;-0.75;88.66992;93666.64;;;;
2020/12/08 03:31:45;;;;;;;58.5;11.9;;;;;;;-0.75;88.66992;93666.64;;;;
2020/12/08 03:32:45;;;;;;;58.5;11.9;;;;;;;-0.75;88.66992;93666.64;;;;
2020/12/08 03:33:46;;;;;;;58.5;11.9;;;;;;;-0.75;88.66992;93666.64;;;;
2020/12/08 03:34:46;;;;;;;58.5;11.9;;;;;;;-0.75;88.66992;93666.64;;;;
2020/12/08 03:35:47;;;;;;;58.5;11.9;;;;;;;-0.75;88.66992;93666.64;;;;
2020/12/08 03:36:48;;;;;;;58.5;11.9;;;;;;;-0.75;88.66992;93666.64;;;;
2020/12/08 03:37:48;;;;;;;58.5;11.9;;;;;;;-0.75;88.66992;93666.64;;;;
2020/12/08 03:38:49;;;;;;;25.95;11.65;;;;;;;-0.76;88.7627;93675.62;;;;
2020/12/08 03:39:49;;;;;;;25.95;11.65;;;;;;;-0.76;88.7627;93675.62;;;;
2020/12/08 03:40:50;;;;;;;25.95;11.65;;;;;;;-0.76;88.7627;93675.62;;;;
2020/12/08 03:41:50;;;;;;;25.95;11.65;;;;;;;-0.76;88.7627;93675.62;;;;
2020/12/08 03:42:51;;;;;;;25.95;11.65;;;;;;;-0.76;88.7627;93675.62;;;;
2020/12/08 03:43:51;;;;;;;25.95;11.65;;;;;;;-0.76;88.7627;93675.62;;;;
2020/12/08 03:44:52;;;;;;;25.95;11.65;;;;;;;-0.76;88.7627;93675.62;;;;
2020/12/08 03:45:53;;;;;;;25.95;11.65;;;;;;;-0.76;88.7627;93675.62;;;;
2020/12/08 03:46:54;;;;;;;25.95;11.65;;;;;;;-0.76;88.7627;93675.62;;;;
2020/12/08 03:47:55;;;;;;;25.95;11.65;;;;;;;-0.76;88.7627;93675.62;;;;
2020/12/08 03:48:55;;;;;;;22.65;10.9;;;;;;;-0.77;88.9248;93663.39;;;;
2020/12/08 03:49:56;;;;;;;22.65;10.9;;;;;;;-0.77;88.9248;93663.39;;;;
2020/12/08 03:50:56;;;;;;;22.65;10.9;;;;;;;-0.77;88.9248;93663.39;;;;
2020/12/08 03:51:57;;;;;;;22.65;10.9;;;;;;;-0.77;88.9248;93663.39;;;;
2020/12/08 03:52:58;;;;;;;22.65;10.9;;;;;;;-0.77;88.9248;93663.39;;;;
2020/12/08 03:53:59;;;;;;;22.65;10.9;;;;;;;-0.77;88.9248;93663.39;;;;
2020/12/08 03:54:59;;;;;;;22.65;10.9;;;;;;;-0.77;88.9248;93663.39;;;;
2020/12/08 03:56:00;;;;;;;22.65;10.9;;;;;;;-0.77;88.9248;93663.39;;;;
2020/12/08 03:57:00;;;;;;;22.65;10.9;;;;;;;-0.77;88.9248;93663.39;;;;
2020/12/08 03:58:01;;;;;;;22.65;10.9;;;;;;;-0.77;88.9248;93663.39;;;;
2020/12/08 03:59:01;;;;;;;22.65;10.9;;;;;;;-0.77;88.9248;93663.39;;;;
2020/12/08 04:00:02;;;;;;;19.6;10.1;;;;;;;-0.83;89.09961;93653.22;;;;
2020/12/08 04:01:05;;;;;;;19.6;10.1;;;;;;;-0.83;89.09961;93653.22;;;;
2020/12/08 04:02:15;;;;;;;19.6;10.1;;;;;;;-0.83;89.09961;93653.22;;;;
2020/12/08 04:03:15;;;;;;;19.6;10.1;;;;;;;-0.83;89.09961;93653.22;;;;
2020/12/08 04:04:16;;;;;;;19.6;10.1;;;;;;;-0.83;89.09961;93653.22;;;;
2020/12/08 04:05:17;;;;;;;19.6;10.1;;;;;;;-0.83;89.09961;93653.22;;;;
2020/12/08 04:06:18;;;;;;;19.6;10.1;;;;;;;-0.83;89.09961;93653.22;;;;
2020/12/08 04:07:19;;;;;;;19.6;10.1;;;;;;;-0.83;89.09961;93653.22;;;;
2020/12/08 04:08:19;;;;;;;19.6;10.1;;;;;;;-0.83;89.09961;93653.22;;;;
2020/12/08 04:09:20;;;;;;;19.6;10.1;;;;;;;-0.83;89.09961;93653.22;;;;
2020/12/08 04:10:20;;;;;;;17.85;8.65;;;;;;;-0.84;89.01465;93669.2;;;;
2020/12/08 04:11:21;;;;;;;17.85;8.65;;;;;;;-0.84;89.01465;93669.2;;;;
2020/12/08 04:12:21;;;;;;;17.85;8.65;;;;;;;-0.84;89.01465;93669.2;;;;
2020/12/08 04:13:22;;;;;;;17.85;8.65;;;;;;;-0.84;89.01465;93669.2;;;;
2020/12/08 04:14:23;;;;;;;17.85;8.65;;;;;;;-0.84;89.01465;93669.2;;;;
2020/12/08 04:15:24;;;;;;;17.85;8.65;;;;;;;-0.84;89.01465;93669.2;;;;
2020/12/08 04:16:24;;;;;;;17.85;8.65;;;;;;;-0.84;89.01465;93669.2;;;;
2020/12/08 04:17:25;;;;;;;17.85;8.65;;;;;;;-0.84;89.01465;93669.2;;;;
2020/12/08 04:18:25;;;;;;;17.85;8.65;;;;;;;-0.84;89.01465;93669.2;;;;
2020/12/08 04:19:26;;;;;;;17.85;8.65;;;;;;;-0.84;89.01465;93669.2;;;;
2020/12/08 04:20:26;;;;;;;17.85;8.65;;;;;;;-0.84;89.01465;93669.2;;;;
2020/12/08 04:21:27;;;;;;;25.8;9.649999;;;;;;;-0.92;88.8418;93662.41;;;;
2020/12/08 04:22:28;;;;;;;25.8;9.649999;;;;;;;-0.92;88.8418;93662.41;;;;
2020/12/08 04:23:29;;;;;;;25.8;9.649999;;;;;;;-0.92;88.8418;93662.41;;;;
2020/12/08 04:24:29;;;;;;;25.8;9.649999;;;;;;;-0.92;88.8418;93662.41;;;;
2020/12/08 04:25:30;;;;;;;25.8;9.649999;;;;;;;-0.92;88.8418;93662.41;;;;
2020/12/08 04:26:32;;;;;;;25.8;9.649999;;;;;;;-0.92;88.8418;93662.41;;;;
2020/12/08 04:27:33;;;;;;;25.8;9.649999;;;;;;;-0.92;88.8418;93662.41;;;;
2020/12/08 04:28:34;;;;;;;25.8;9.649999;;;;;;;-0.92;88.8418;93662.41;;;;
2020/12/08 04:29:34;;;;;;;25.8;9.649999;;;;;;;-0.92;88.8418;93662.41;;;;
2020/12/08 04:30:35;;;;;;;25.8;9.649999;;;;;;;-0.92;88.8418;93662.41;;;;
2020/12/08 04:31:37;;;;;;;17.45;7.9;;;;;;;-1.05;88.96973;93663.23;;;;
2020/12/08 04:32:37;;;;;;;17.45;7.9;;;;;;;-1.05;88.96973;93663.23;;;;
2020/12/08 04:33:38;;;;;;;17.45;7.9;;;;;;;-1.05;88.96973;93663.23;;;;
2020/12/08 04:34:38;;;;;;;17.45;7.9;;;;;;;-1.05;88.96973;93663.23;;;;
2020/12/08 04:35:39;;;;;;;17.45;7.9;;;;;;;-1.05;88.96973;93663.23;;;;
2020/12/08 04:36:41;;;;;;;17.45;7.9;;;;;;;-1.05;88.96973;93663.23;;;;
2020/12/08 04:37:41;;;;;;;17.45;7.9;;;;;;;-1.05;88.96973;93663.23;;;;
2020/12/08 04:38:42;;;;;;;17.45;7.9;;;;;;;-1.05;88.96973;93663.23;;;;
2020/12/08 04:39:43;;;;;;;17.45;7.9;;;;;;;-1.05;88.96973;93663.23;;;;
2020/12/08 04:40:44;;;;;;;17.45;7.9;;;;;;;-1.05;88.96973;93663.23;;;;
2020/12/08 04:41:47;;;;;;;17.45;7.9;;;;;;;-1.05;88.96973;93663.23;;;;
2020/12/08 04:42:47;;;;;;;65.39999;10.35;;;;;;;-1.13;89.04883;93674.44;;;;
2020/12/08 04:43:49;;;;;;;65.39999;10.35;;;;;;;-1.13;89.04883;93674.44;;;;
2020/12/08 04:44:51;;;;;;;65.39999;10.35;;;;;;;-1.13;89.04883;93674.44;;;;
2020/12/08 04:45:54;;;;;;;65.39999;10.35;;;;;;;-1.13;89.04883;93674.44;;;;
2020/12/08 04:46:54;;;;;;;65.39999;10.35;;;;;;;-1.13;89.04883;93674.44;;;;
2020/12/08 04:47:57;;;;;;;65.39999;10.35;;;;;;;-1.13;89.04883;93674.44;;;;
2020/12/08 04:49:03;;;;;;;65.39999;10.35;;;;;;;-1.13;89.04883;93674.44;;;;
2020/12/08 04:50:04;;;;;;;65.39999;10.35;;;;;;;-1.13;89.04883;93674.44;;;;
2020/12/08 04:51:05;;;;;;;65.39999;10.35;;;;;;;-1.13;89.04883;93674.44;;;;
2020/12/08 04:52:06;;;;;;;65.39999;10.35;;;;;;;-1.13;89.04883;93674.44;;;;
2020/12/08 04:53:06;;;;;;;25;8.75;;;;;;;-1.25;89.35547;93686.67;;;;
2020/12/08 04:54:07;;;;;;;25;8.75;;;;;;;-1.25;89.35547;93686.67;;;;
2020/12/08 04:55:07;;;;;;;25;8.75;;;;;;;-1.25;89.35547;93686.67;;;;
2020/12/08 04:56:08;;;;;;;25;8.75;;;;;;;-1.25;89.35547;93686.67;;;;
2020/12/08 04:57:09;;;;;;;25;8.75;;;;;;;-1.25;89.35547;93686.67;;;;
2020/12/08 04:58:10;;;;;;;25;8.75;;;;;;;-1.25;89.35547;93686.67;;;;
2020/12/08 04:59:11;;;;;;;25;8.75;;;;;;;-1.25;89.35547;93686.67;;;;
2020/12/08 05:00:19;;;;;;;25;8.75;;;;;;;-1.25;89.35547;93686.67;;;;
2020/12/08 05:01:19;;;;;;;25;8.75;;;;;;;-1.25;89.35547;93686.67;;;;
2020/12/08 05:02:24;;;;;;;25;8.75;;;;;;;-1.25;89.35547;93686.67;;;;
2020/12/08 05:03:25;;;;;;;32.25;9.9;;;;;;;-1.29;89.37598;93671.38;;;;
2020/12/08 05:04:27;;;;;;;32.25;9.9;;;;;;;-1.29;89.37598;93671.38;;;;
2020/12/08 05:05:27;;;;;;;32.25;9.9;;;;;;;-1.29;89.37598;93671.38;;;;
2020/12/08 05:06:28;;;;;;;32.25;9.9;;;;;;;-1.29;89.37598;93671.38;;;;
2020/12/08 05:07:30;;;;;;;32.25;9.9;;;;;;;-1.29;89.37598;93671.38;;;;
2020/12/08 05:08:30;;;;;;;32.25;9.9;;;;;;;-1.29;89.37598;93671.38;;;;
2020/12/08 05:09:31;;;;;;;32.25;9.9;;;;;;;-1.29;89.37598;93671.38;;;;
2020/12/08 05:10:31;;;;;;;32.25;9.9;;;;;;;-1.29;89.37598;93671.38;;;;
2020/12/08 05:11:32;;;;;;;32.25;9.9;;;;;;;-1.29;89.37598;93671.38;;;;
2020/12/08 05:12:33;;;;;;;32.25;9.9;;;;;;;-1.29;89.37598;93671.38;;;;
2020/12/08 05:13:34;;;;;;;32.25;9.9;;;;;;;-1.29;89.37598;93671.38;;;;
2020/12/08 05:14:34;;;;;;;35.65001;10.45;;;;;;;-1.28;89.32617;93671.7;;;;
2020/12/08 05:15:41;;;;;;;35.65001;10.45;;;;;;;-1.28;89.32617;93671.7;;;;
2020/12/08 05:16:41;;;;;;;35.65001;10.45;;;;;;;-1.28;89.32617;93671.7;;;;
2020/12/08 05:17:43;;;;;;;35.65001;10.45;;;;;;;-1.28;89.32617;93671.7;;;;
2020/12/08 05:18:43;;;;;;;35.65001;10.45;;;;;;;-1.28;89.32617;93671.7;;;;
2020/12/08 05:19:44;;;;;;;35.65001;10.45;;;;;;;-1.28;89.32617;93671.7;;;;
2020/12/08 05:20:45;;;;;;;35.65001;10.45;;;;;;;-1.28;89.32617;93671.7;;;;
2020/12/08 05:21:45;;;;;;;35.65001;10.45;;;;;;;-1.28;89.32617;93671.7;;;;
2020/12/08 05:22:47;;;;;;;35.65001;10.45;;;;;;;-1.28;89.32617;93671.7;;;;
2020/12/08 05:23:57;;;;;;;35.65001;10.45;;;;;;;-1.28;89.32617;93671.7;;;;
2020/12/08 05:24:57;;;;;;;24.5;9.45;;;;;;;-1.37;89.0498;93659.16;;;;
2020/12/08 05:26:15;;;;;;;24.5;9.45;;;;;;;-1.37;89.0498;93659.16;;;;
2020/12/08 05:27:16;;;;;;;24.5;9.45;;;;;;;-1.37;89.0498;93659.16;;;;
2020/12/08 05:28:19;;;;;;;24.5;9.45;;;;;;;-1.37;89.0498;93659.16;;;;
2020/12/08 05:29:20;;;;;;;24.5;9.45;;;;;;;-1.37;89.0498;93659.16;;;;
2020/12/08 05:30:20;;;;;;;24.5;9.45;;;;;;;-1.37;89.0498;93659.16;;;;
2020/12/08 05:31:21;;;;;;;24.5;9.45;;;;;;;-1.37;89.0498;93659.16;;;;
2020/12/08 05:32:29;;;;;;;24.5;9.45;;;;;;;-1.37;89.0498;93659.16;;;;
2020/12/08 05:33:35;;;;;;;24.5;9.45;;;;;;;-1.37;89.0498;93659.16;;;;
2020/12/08 05:34:37;;;;;;;24.5;9.45;;;;;;;-1.37;89.0498;93659.16;;;;
2020/12/08 05:35:38;;;;;;;18.3;9.449999;;;;;;;-1.47;89.16016;93690.61;;;;
2020/12/08 05:36:40;;;;;;;18.3;9.449999;;;;;;;-1.47;89.16016;93690.61;;;;
2020/12/08 05:37:47;;;;;;;18.3;9.449999;;;;;;;-1.47;89.16016;93690.61;;;;
2020/12/08 05:38:49;;;;;;;18.3;9.449999;;;;;;;-1.47;89.16016;93690.61;;;;
2020/12/08 05:39:52;;;;;;;18.3;9.449999;;;;;;;-1.47;89.16016;93690.61;;;;
2020/12/08 05:40:53;;;;;;;18.3;9.449999;;;;;;;-1.47;89.16016;93690.61;;;;
2020/12/08 05:41:54;;;;;;;18.3;9.449999;;;;;;;-1.47;89.16016;93690.61;;;;
2020/12/08 05:42:59;;;;;;;18.3;9.449999;;;;;;;-1.47;89.16016;93690.61;;;;